| Min | Max / Total | Moy | |
|---|---|---|---|
| T° | 14.4°c | 34.2°c | 24.3°c (ecart +5.5°) |
| Vent moyen | - | 19 km/h | 7 km/h |
| Vent rafale | - | 35 km/h | 11.2 km/h |
| Pression | 1018.5 hPa | 1022.1 hPa | 1020.1 hPa |
| Précipitations | - | 0 mm | - |
Actuellement
T°ext 22.8°C
H% ext 71 %
Vent 10 km/h / Maxi 13 km/h S
Pression 1020.2 hPa
Donnée détaillées (10 min)
| Date | Tempé | Tempé. INT | Tempé. rosée | H% | Vmoy.(km/h) | Rafales (km/h) | Dir. vent | Intensité pluie (L/m²/h) | Tot pluie 24h (L/m²) | Pression (hPa) |
|---|---|---|---|---|---|---|---|---|---|---|
| 23:50 | 20.7 ° | 24.8 ° | 14.6 ° | 68 % | 5 | 8 | OSO | 0.0 | 0.0 | 1021.8 |
| 23:40 | 20.9 ° | 24.9 ° | 14.1 ° | 65 % | 7 | 8 | OSO | 0.0 | 0.0 | 1021.8 |
| 23:30 | 21.2 ° | 24.9 ° | 13.6 ° | 62 % | 6 | 10 | OSO | 0.0 | 0.0 | 1021.9 |
| 23:20 | 21.4 ° | 24.9 ° | 13.1 ° | 59 % | 6 | 10 | OSO | 0.0 | 0.0 | 1021.8 |
| 23:10 | 21.7 ° | 24.8 ° | 13.8 ° | 61 % | 6 | 8 | OSO | 0.0 | 0.0 | 1021.6 |
| 23:00 | 22.1 ° | 24.8 ° | 14.5 ° | 62 % | 7 | 10 | OSO | 0.0 | 0.0 | 1021.7 |
| 22:50 | 22.4 ° | 24.7 ° | 14.5 ° | 61 % | 5 | 8 | OSO | 0.0 | 0.0 | 1021.8 |
| 22:40 | 22.8 ° | 24.6 ° | 14.4 ° | 59 % | 12 | 19 | OSO | 0.0 | 0.0 | 1021.6 |
| 22:30 | 23.0 ° | 24.4 ° | 14.6 ° | 59 % | 11 | 16 | ONO | 0.0 | 0.0 | 1021.5 |
| 22:20 | 23.4 ° | 24.1 ° | 14.9 ° | 59 % | 10 | 16 | O | 0.0 | 0.0 | 1021.5 |
| 22:10 | 23.7 ° | 23.8 ° | 14.4 ° | 56 % | 10 | 16 | O | 0.0 | 0.0 | 1021.5 |
| 22:00 | 24.0 ° | 23.8 ° | 13.8 ° | 53 % | 11 | 13 | O | 0.0 | 0.0 | 1021.3 |
| 21:50 | 24.3 ° | 23.7 ° | 12.6 ° | 48 % | 7 | 10 | O | 0.0 | 0.0 | 1021.2 |
| 21:40 | 24.6 ° | 23.5 ° | 12.5 ° | 47 % | 8 | 10 | OSO | 0.0 | 0.0 | 1021.0 |
| 21:30 | 24.9 ° | 23.6 ° | 12.5 ° | 46 % | 5 | 8 | OSO | 0.0 | 0.0 | 1020.7 |
| 21:20 | 25.3 ° | 23.8 ° | 12.8 ° | 46 % | 5 | 8 | ONO | 0.0 | 0.0 | 1020.4 |
| 21:10 | 25.7 ° | 23.9 ° | 13.2 ° | 46 % | 6 | 13 | OSO | 0.0 | 0.0 | 1020.2 |
| 21:00 | 26.1 ° | 23.9 ° | 13.6 ° | 46 % | 9 | 13 | ONO | 0.0 | 0.0 | 1019.9 |
| 20:50 | 26.5 ° | 23.8 ° | 13.9 ° | 46 % | 6 | 13 | O | 0.0 | 0.0 | 1019.8 |
| 20:40 | 27.0 ° | 23.8 ° | 14.1 ° | 45 % | 11 | 19 | O | 0.0 | 0.0 | 1019.9 |
| 20:30 | 27.5 ° | 23.8 ° | 14.5 ° | 45 % | 10 | 16 | NO | 0.0 | 0.0 | 1019.7 |
| 20:20 | 28.0 ° | 23.8 ° | 14.6 ° | 44 % | 10 | 16 | NO | 0.0 | 0.0 | 1019.5 |
| 20:10 | 28.6 ° | 23.8 ° | 15.2 ° | 44 % | 10 | 19 | NO | 0.0 | 0.0 | 1019.4 |
| 20:00 | 29.2 ° | 23.8 ° | 15.0 ° | 42 % | 8 | 13 | O | 0.0 | 0.0 | 1019.3 |
| 19:50 | 29.5 ° | 23.8 ° | 13.7 ° | 38 % | 7 | 10 | O | 0.0 | 0.0 | 1019.3 |
| 19:40 | 29.8 ° | 23.7 ° | 13.5 ° | 37 % | 12 | 19 | O | 0.0 | 0.0 | 1019.2 |
| 19:30 | 30.2 ° | 23.7 ° | 13.5 ° | 36 % | 15 | 21 | ONO | 0.0 | 0.0 | 1019.1 |
| 19:20 | 30.6 ° | 23.6 ° | 12.9 ° | 34 % | 14 | 21 | O | 0.0 | 0.0 | 1019.0 |
| 19:10 | 31.0 ° | 23.3 ° | 12.8 ° | 33 % | 15 | 21 | ONO | 0.0 | 0.0 | 1018.9 |
| 19:00 | 31.3 ° | 23.1 ° | 12.6 ° | 32 % | 14 | 19 | O | 0.0 | 0.0 | 1018.9 |
| 18:50 | 31.5 ° | 23.1 ° | 12.3 ° | 31 % | 15 | 24 | ONO | 0.0 | 0.0 | 1018.9 |
| 18:40 | 31.8 ° | 23.1 ° | 12.6 ° | 31 % | 15 | 24 | ONO | 0.0 | 0.0 | 1018.9 |
| 18:30 | 32.1 ° | 23.2 ° | 12.8 ° | 31 % | 17 | 24 | ONO | 0.0 | 0.0 | 1018.9 |
| 18:20 | 32.2 ° | 23.3 ° | 12.9 ° | 31 % | 16 | 27 | O | 0.0 | 0.0 | 1018.9 |
| 18:10 | 32.5 ° | 23.4 ° | 12.7 ° | 30 % | 15 | 27 | O | 0.0 | 0.0 | 1019.0 |
| 18:00 | 32.6 ° | 23.5 ° | 13.3 ° | 31 % | 16 | 24 | ONO | 0.0 | 0.0 | 1018.9 |
| 17:50 | 32.7 ° | 23.8 ° | 13.8 ° | 32 % | 16 | 27 | NO | 0.0 | 0.0 | 1018.8 |
| 17:40 | 32.8 ° | 24.0 ° | 13.4 ° | 31 % | 15 | 27 | O | 0.0 | 0.0 | 1018.6 |
| 17:30 | 32.8 ° | 24.1 ° | 13.4 ° | 31 % | 14 | 35 | O | 0.0 | 0.0 | 1018.5 |
| 17:20 | 32.9 ° | 24.1 ° | 13.5 ° | 31 % | 17 | 24 | ONO | 0.0 | 0.0 | 1018.5 |
| 17:10 | 33.0 ° | 24.1 ° | 13.6 ° | 31 % | 17 | 27 | ONO | 0.0 | 0.0 | 1018.6 |
| 17:00 | 33.2 ° | 24.0 ° | 13.8 ° | 31 % | 17 | 27 | NO | 0.0 | 0.0 | 1018.6 |
| 16:50 | 33.2 ° | 24.0 ° | 13.8 ° | 31 % | 19 | 29 | NNO | 0.0 | 0.0 | 1018.6 |
| 16:40 | 33.3 ° | 24.0 ° | 13.9 ° | 31 % | 16 | 24 | NNO | 0.0 | 0.0 | 1018.6 |
| 16:30 | 33.2 ° | 23.9 ° | 13.3 ° | 30 % | 14 | 24 | NO | 0.0 | 0.0 | 1018.6 |
| 16:20 | 33.3 ° | 23.9 ° | 12.9 ° | 29 % | 13 | 24 | NO | 0.0 | 0.0 | 1018.7 |
| 16:10 | 33.5 ° | 24.1 ° | 13.0 ° | 29 % | 13 | 21 | NO | 0.0 | 0.0 | 1018.7 |
| 16:00 | 33.7 ° | 24.1 ° | 12.7 ° | 28 % | 13 | 21 | NO | 0.0 | 0.0 | 1018.8 |
| 15:50 | 33.7 ° | 24.1 ° | 13.2 ° | 29 % | 15 | 27 | NNO | 0.0 | 0.0 | 1018.9 |
| 15:40 | 33.9 ° | 24.1 ° | 13.9 ° | 30 % | 16 | 21 | O | 0.0 | 0.0 | 1018.9 |
| 15:30 | 33.8 ° | 24.1 ° | 13.8 ° | 30 % | 13 | 19 | NO | 0.0 | 0.0 | 1019.0 |
| 15:20 | 34.0 ° | 24.1 ° | 13.5 ° | 29 % | 18 | 27 | NO | 0.0 | 0.0 | 1019.2 |
| 15:10 | 34.2 ° | 23.9 ° | 13.1 ° | 28 % | 10 | 16 | ONO | 0.0 | 0.0 | 1019.3 |
| 15:00 | 33.8 ° | 23.7 ° | 13.3 ° | 29 % | 14 | 24 | O | 0.0 | 0.0 | 1019.3 |
| 14:50 | 33.7 ° | 23.6 ° | 13.2 ° | 29 % | 13 | 19 | NO | 0.0 | 0.0 | 1019.3 |
| 14:40 | 33.5 ° | 23.6 ° | 12.5 ° | 28 % | 12 | 19 | ONO | 0.0 | 0.0 | 1019.3 |
| 14:30 | 34.2 ° | 23.8 ° | 12.0 ° | 26 % | 9 | 16 | OSO | 0.0 | 0.0 | 1019.4 |
| 14:20 | 33.5 ° | 24.2 ° | 11.9 ° | 27 % | 12 | 19 | SO | 0.0 | 0.0 | 1019.5 |
| 14:10 | 32.6 ° | 24.5 ° | 13.8 ° | 32 % | 11 | 19 | N | 0.0 | 0.0 | 1019.7 |
| 14:00 | 32.4 ° | 24.4 ° | 14.1 ° | 33 % | 13 | 19 | NO | 0.0 | 0.0 | 1019.8 |
| 13:50 | 32.1 ° | 24.4 ° | 14.3 ° | 34 % | 11 | 13 | NO | 0.0 | 0.0 | 1019.8 |
| 13:40 | 31.9 ° | 24.3 ° | 14.1 ° | 34 % | 10 | 16 | E | 0.0 | 0.0 | 1019.9 |
| 13:30 | 31.4 ° | 24.3 ° | 13.6 ° | 34 % | 13 | 19 | NNE | 0.0 | 0.0 | 1019.9 |
| 13:20 | 31.2 ° | 24.2 ° | 13.9 ° | 35 % | 10 | 16 | O | 0.0 | 0.0 | 1019.8 |
| 13:10 | 31.3 ° | 24.2 ° | 14.0 ° | 35 % | 9 | 13 | O | 0.0 | 0.0 | 1019.8 |
| 13:00 | 31.0 ° | 24.2 ° | 14.6 ° | 37 % | 8 | 13 | NO | 0.0 | 0.0 | 1019.9 |
| 12:50 | 30.7 ° | 24.1 ° | 15.2 ° | 39 % | 9 | 13 | O | 0.0 | 0.0 | 1020.0 |
| 12:40 | 30.8 ° | 24.1 ° | 16.0 ° | 41 % | 8 | 13 | NNO | 0.0 | 0.0 | 1020.1 |
| 12:30 | 30.1 ° | 24.1 ° | 16.1 ° | 43 % | 7 | 10 | N | 0.0 | 0.0 | 1020.2 |
| 12:20 | 29.9 ° | 24.0 ° | 16.3 ° | 44 % | 7 | 10 | NNE | 0.0 | 0.0 | 1020.1 |
| 12:10 | 29.2 ° | 24.0 ° | 16.0 ° | 45 % | 6 | 8 | NNE | 0.0 | 0.0 | 1020.2 |
| 12:00 | 28.7 ° | 24.0 ° | 16.3 ° | 47 % | 7 | 10 | N | 0.0 | 0.0 | 1020.3 |
| 11:50 | 28.6 ° | 24.0 ° | 16.5 ° | 48 % | 6 | 10 | NE | 0.0 | 0.0 | 1020.2 |
| 11:40 | 27.3 ° | 23.9 ° | 16.3 ° | 51 % | 5 | 8 | NNO | 0.0 | 0.0 | 1020.2 |
| 11:30 | 26.6 ° | 23.9 ° | 16.2 ° | 53 % | 7 | 8 | N | 0.0 | 0.0 | 1020.3 |
| 11:20 | 26.2 ° | 23.8 ° | 16.4 ° | 55 % | 7 | 10 | NNE | 0.0 | 0.0 | 1020.2 |
| 11:10 | 26.0 ° | 23.8 ° | 16.5 ° | 56 % | 6 | 10 | NE | 0.0 | 0.0 | 1020.2 |
| 11:00 | 25.0 ° | 23.8 ° | 16.4 ° | 59 % | 8 | 13 | NNE | 0.0 | 0.0 | 1020.0 |
| 10:50 | 23.8 ° | 23.8 ° | 16.1 ° | 62 % | 6 | 10 | NNE | 0.0 | 0.0 | 1020.1 |
| 10:40 | 23.0 ° | 23.8 ° | 15.6 ° | 63 % | 6 | 10 | NE | 0.0 | 0.0 | 1020.1 |
| 10:30 | 22.2 ° | 23.8 ° | 15.5 ° | 66 % | 6 | 8 | ENE | 0.0 | 0.0 | 1020.0 |
| 10:20 | 21.5 ° | 23.7 ° | 15.1 ° | 67 % | 5 | 8 | E | 0.0 | 0.0 | 1020.1 |
| 10:10 | 20.9 ° | 23.7 ° | 15.0 ° | 69 % | 6 | 8 | ENE | 0.0 | 0.0 | 1020.1 |
| 10:00 | 20.4 ° | 23.7 ° | 14.7 ° | 70 % | 6 | 10 | ENE | 0.0 | 0.0 | 1020.1 |
| 09:50 | 20.0 ° | 23.7 ° | 14.6 ° | 71 % | 6 | 10 | ENE | 0.0 | 0.0 | 1020.1 |
| 09:40 | 19.7 ° | 23.7 ° | 14.5 ° | 72 % | 9 | 13 | E | 0.0 | 0.0 | 1020.1 |
| 09:30 | 19.6 ° | 23.7 ° | 14.4 ° | 72 % | 5 | 8 | ESE | 0.0 | 0.0 | 1020.1 |
| 09:20 | 19.3 ° | 23.7 ° | 15.0 ° | 76 % | 6 | 10 | E | 0.0 | 0.0 | 1020.1 |
| 09:10 | 19.0 ° | 23.7 ° | 14.7 ° | 76 % | 8 | 10 | E | 0.0 | 0.0 | 1020.1 |
| 09:00 | 18.6 ° | 23.7 ° | 14.5 ° | 77 % | 5 | 8 | E | 0.0 | 0.0 | 1020.0 |
| 08:50 | 17.6 ° | 23.7 ° | 14.3 ° | 81 % | 8 | 13 | ESE | 0.0 | 0.0 | 1020.0 |
| 08:40 | 16.3 ° | 23.7 ° | 13.6 ° | 84 % | 5 | 13 | SE | 0.0 | 0.0 | 1020.0 |
| 08:30 | 15.6 ° | 23.7 ° | 13.1 ° | 85 % | 4 | 8 | SE | 0.0 | 0.0 | 1019.9 |
| 08:20 | 15.3 ° | 23.7 ° | 12.8 ° | 85 % | 3 | 5 | SSE | 0.0 | 0.0 | 1019.8 |
| 08:10 | 15.0 ° | 23.7 ° | 12.5 ° | 85 % | 2 | 8 | SSE | 0.0 | 0.0 | 1019.9 |
| 08:00 | 14.8 ° | 23.7 ° | 12.3 ° | 85 % | 3 | 5 | SSE | 0.0 | 0.0 | 1019.6 |
| 07:50 | 14.5 ° | 23.6 ° | 11.8 ° | 84 % | 3 | 5 | SSE | 0.0 | 0.0 | 1019.5 |
| 07:40 | 14.4 ° | 23.6 ° | 11.7 ° | 84 % | 0 | 3 | SSE | 0.0 | 0.0 | 1019.6 |
| 07:30 | 14.5 ° | 23.6 ° | 11.8 ° | 84 % | 0 | - | SSE | 0.0 | 0.0 | 1019.7 |
| 07:20 | 14.6 ° | 23.7 ° | 11.9 ° | 84 % | 0 | - | SSE | 0.0 | 0.0 | 1019.7 |
| 07:10 | 14.6 ° | 23.7 ° | 11.9 ° | 84 % | 2 | 5 | SSE | 0.0 | 0.0 | 1019.6 |
| 07:00 | 14.6 ° | 23.7 ° | 11.7 ° | 83 % | 0 | 3 | SSE | 0.0 | 0.0 | 1019.7 |
| 06:50 | 14.7 ° | 23.7 ° | 12.0 ° | 84 % | 0 | - | SSE | 0.0 | 0.0 | 1019.7 |
| 06:40 | 14.7 ° | 23.7 ° | 12.0 ° | 84 % | 0 | - | SSE | 0.0 | 0.0 | 1019.7 |
| 06:30 | 14.8 ° | 23.7 ° | 11.9 ° | 83 % | 0 | - | S | 0.0 | 0.0 | 1019.8 |
| 06:20 | 14.8 ° | 23.8 ° | 11.9 ° | 83 % | 0 | - | SSE | 0.0 | 0.0 | 1019.8 |
| 06:10 | 14.9 ° | 23.8 ° | 12.0 ° | 83 % | 0 | - | S | 0.0 | 0.0 | 1019.8 |
| 06:00 | 14.9 ° | 23.8 ° | 12.0 ° | 83 % | 0 | - | S | 0.0 | 0.0 | 1019.8 |
| 05:50 | 14.9 ° | 23.8 ° | 12.2 ° | 84 % | 0 | 3 | SSE | 0.0 | 0.0 | 1019.8 |
| 05:40 | 14.8 ° | 23.8 ° | 12.1 ° | 84 % | 0 | 3 | S | 0.0 | 0.0 | 1019.8 |
| 05:30 | 14.7 ° | 23.9 ° | 12.2 ° | 85 % | 0 | - | S | 0.0 | 0.0 | 1019.9 |
| 05:20 | 14.6 ° | 23.9 ° | 12.1 ° | 85 % | 0 | - | S | 0.0 | 0.0 | 1019.8 |
| 05:10 | 14.5 ° | 23.9 ° | 12.0 ° | 85 % | 3 | 5 | S | 0.0 | 0.0 | 1020.0 |
| 05:00 | 14.6 ° | 23.9 ° | 11.9 ° | 84 % | 2 | 5 | S | 0.0 | 0.0 | 1020.1 |
| 04:50 | 14.7 ° | 23.9 ° | 12.0 ° | 84 % | 0 | - | S | 0.0 | 0.0 | 1020.1 |
| 04:40 | 14.8 ° | 24.0 ° | 12.1 ° | 84 % | 0 | - | S | 0.0 | 0.0 | 1020.3 |
| 04:30 | 14.9 ° | 24.0 ° | 12.2 ° | 84 % | 0 | - | S | 0.0 | 0.0 | 1020.3 |
| 04:20 | 15.1 ° | 24.0 ° | 12.4 ° | 84 % | 0 | - | S | 0.0 | 0.0 | 1020.3 |
| 04:10 | 15.2 ° | 24.0 ° | 12.5 ° | 84 % | 4 | 5 | S | 0.0 | 0.0 | 1020.5 |
| 04:00 | 15.2 ° | 24.0 ° | 12.3 ° | 83 % | 0 | - | SO | 0.0 | 0.0 | 1020.6 |
| 03:50 | 15.2 ° | 24.1 ° | 12.3 ° | 83 % | 3 | - | SO | 0.0 | 0.0 | 1020.7 |
| 03:40 | 15.2 ° | 24.1 ° | 12.1 ° | 82 % | 4 | 5 | OSO | 0.0 | 0.0 | 1020.7 |
| 03:30 | 15.3 ° | 24.1 ° | 12.2 ° | 82 % | 0 | - | OSO | 0.0 | 0.0 | 1020.9 |
| 03:20 | 15.5 ° | 24.1 ° | 12.4 ° | 82 % | 0 | - | OSO | 0.0 | 0.0 | 1020.8 |
| 03:10 | 15.7 ° | 24.2 ° | 12.6 ° | 82 % | 0 | - | OSO | 0.0 | 0.0 | 1021.0 |
| 03:00 | 15.8 ° | 24.2 ° | 12.5 ° | 81 % | 0 | - | OSO | 0.0 | 0.0 | 1021.1 |
| 02:50 | 16.0 ° | 24.2 ° | 12.7 ° | 81 % | 0 | - | OSO | 0.0 | 0.0 | 1021.3 |
| 02:40 | 16.1 ° | 24.2 ° | 12.6 ° | 80 % | 0 | - | OSO | 0.0 | 0.0 | 1021.2 |
| 02:30 | 16.2 ° | 24.3 ° | 12.6 ° | 79 % | 0 | - | OSO | 0.0 | 0.0 | 1021.4 |
| 02:20 | 16.3 ° | 24.3 ° | 12.6 ° | 79 % | 0 | - | OSO | 0.0 | 0.0 | 1021.4 |
| 02:10 | 16.5 ° | 24.3 ° | 12.8 ° | 79 % | 0 | - | OSO | 0.0 | 0.0 | 1021.6 |
| 02:00 | 16.7 ° | 24.4 ° | 13.0 ° | 79 % | 2 | 3 | OSO | 0.0 | 0.0 | 1021.7 |
| 01:50 | 16.8 ° | 24.4 ° | 12.9 ° | 78 % | 3 | 5 | OSO | 0.0 | 0.0 | 1021.7 |
| 01:40 | 17.0 ° | 24.5 ° | 13.1 ° | 78 % | 3 | 5 | OSO | 0.0 | 0.0 | 1021.7 |
| 01:30 | 17.1 ° | 24.6 ° | 13.0 ° | 77 % | 4 | 5 | OSO | 0.0 | 0.0 | 1021.7 |
| 01:20 | 17.3 ° | 24.6 ° | 13.2 ° | 77 % | 4 | 5 | OSO | 0.0 | 0.0 | 1021.7 |
| 01:10 | 17.5 ° | 24.7 ° | 13.4 ° | 77 % | 3 | 5 | OSO | 0.0 | 0.0 | 1021.7 |
| 01:00 | 17.6 ° | 24.7 ° | 13.3 ° | 76 % | 4 | 5 | OSO | 0.0 | 0.0 | 1021.7 |
| 00:50 | 17.8 ° | 24.7 ° | 13.3 ° | 75 % | 4 | 5 | OSO | 0.0 | 0.0 | 1021.9 |
| 00:40 | 18.0 ° | 24.7 ° | 13.3 ° | 74 % | 2 | 3 | OSO | 0.0 | 0.0 | 1021.9 |
| 00:30 | 18.2 ° | 24.7 ° | 13.3 ° | 73 % | 3 | 5 | OSO | 0.0 | 0.0 | 1022.0 |
| 00:20 | 18.4 ° | 24.8 ° | 13.5 ° | 73 % | 3 | 5 | OSO | 0.0 | 0.0 | 1022.1 |
| 00:10 | 18.7 ° | 24.8 ° | 13.5 ° | 72 % | 3 | 5 | OSO | 0.0 | 0.0 | 1022.1 |
Donnée détaillées horaires
| Date | Tempé min. | Tempé max. | Max solar Rad (W/m2). | Tempé. INT | Tempé. rosée | H% | Vmoy.(km/h) | Rafales (km/h) | Dir. vent | Intensité pluie (L/m²/h) | Tot pluie 24h (L/m²) | Pression (hPa) |
|---|---|---|---|---|---|---|---|---|---|---|---|---|
| 23:00 | 20.7 ° | 22.1 ° | 0 | 24.9 ° | 14.5 ° | 62 % | 7 | 10 | OSO | 0.0 | 0.0 | 1021.7 |
| 22:00 | 22.4 ° | 24.0 ° | 0 | 24.2 ° | 13.8 ° | 53 % | 12 | 19 | O | 0.0 | 0.0 | 1021.3 |
| 21:00 | 24.3 ° | 26.1 ° | 0 | 23.7 ° | 13.6 ° | 46 % | 9 | 13 | ONO | 0.0 | 0.0 | 1019.9 |
| 20:00 | 26.5 ° | 29.2 ° | 27 | 23.8 ° | 15.0 ° | 42 % | 11 | 19 | O | 0.0 | 0.0 | 1019.3 |
| 19:00 | 29.5 ° | 31.3 ° | 99 | 23.5 ° | 12.6 ° | 32 % | 15 | 21 | O | 0.0 | 0.0 | 1018.9 |
| 18:00 | 31.5 ° | 32.6 ° | 278 | 23.3 ° | 13.3 ° | 31 % | 17 | 27 | ONO | 0.0 | 0.0 | 1018.9 |
| 17:00 | 32.7 ° | 33.2 ° | 437 | 24.0 ° | 13.8 ° | 31 % | 17 | 35 | NO | 0.0 | 0.0 | 1018.6 |
| 16:00 | 33.2 ° | 33.7 ° | 567 | 24.0 ° | 12.7 ° | 28 % | 19 | 29 | NO | 0.0 | 0.0 | 1018.8 |
| 15:00 | 33.7 ° | 34.2 ° | 653 | 24.0 ° | 13.3 ° | 29 % | 18 | 27 | O | 0.0 | 0.0 | 1019.3 |
| 14:00 | 32.4 ° | 34.2 ° | 673 | 24.0 ° | 14.1 ° | 33 % | 13 | 19 | NO | 0.0 | 0.0 | 1019.8 |
| 13:00 | 31.0 ° | 32.1 ° | 644 | 24.3 ° | 14.6 ° | 37 % | 13 | 19 | NO | 0.0 | 0.0 | 1019.9 |
| 12:00 | 28.7 ° | 30.8 ° | 610 | 24.1 ° | 16.3 ° | 47 % | 9 | 13 | N | 0.0 | 0.0 | 1020.3 |
| 11:00 | 25.0 ° | 28.6 ° | 534 | 23.9 ° | 16.4 ° | 59 % | 8 | 13 | NNE | 0.0 | 0.0 | 1020.0 |
| 10:00 | 20.4 ° | 23.8 ° | 393 | 23.8 ° | 14.7 ° | 70 % | 6 | 10 | ENE | 0.0 | 0.0 | 1020.1 |
| 09:00 | 18.6 ° | 20.0 ° | 227 | 23.7 ° | 14.5 ° | 77 % | 9 | 13 | E | 0.0 | 0.0 | 1020.0 |
| 08:00 | 14.8 ° | 17.6 ° | 87 | 23.7 ° | 12.3 ° | 85 % | 8 | 13 | SSE | 0.0 | 0.0 | 1019.6 |
| 07:00 | 14.4 ° | 14.6 ° | 14 | 23.7 ° | 11.7 ° | 83 % | 3 | 5 | SSE | 0.0 | 0.0 | 1019.7 |
| 06:00 | 14.7 ° | 14.9 ° | 0 | 23.8 ° | 12.0 ° | 83 % | 0 | - | S | 0.0 | 0.0 | 1019.8 |
| 05:00 | 14.5 ° | 14.9 ° | 0 | 23.9 ° | 11.9 ° | 84 % | 3 | 5 | S | 0.0 | 0.0 | 1020.1 |
| 04:00 | 14.7 ° | 15.2 ° | 0 | 24.0 ° | 12.3 ° | 83 % | 4 | 5 | SO | 0.0 | 0.0 | 1020.6 |
| 03:00 | 15.2 ° | 15.8 ° | 0 | 24.1 ° | 12.5 ° | 81 % | 4 | 5 | OSO | 0.0 | 0.0 | 1021.1 |
| 02:00 | 16.0 ° | 16.7 ° | 0 | 24.3 ° | 13.0 ° | 79 % | 2 | 3 | OSO | 0.0 | 0.0 | 1021.7 |
| 01:00 | 16.8 ° | 17.6 ° | 0 | 24.6 ° | 13.3 ° | 76 % | 4 | 5 | OSO | 0.0 | 0.0 | 1021.7 |
| 00:00 | 17.8 ° | 19.0 ° | 0 | 24.7 ° | 13.6 ° | 71 % | 4 | 5 | OSO | 0.0 | 0.0 | 1022.1 |
Données mensuelles (Septembre 2026)
| Jour | Tempé. min | Tempé. max | Tempé. moy | Tempé. IN moy | Ecart saisonnier | Vent moy. max jour | Rafale max jour | Tot. pluie jour |
|---|---|---|---|---|---|---|---|---|
| M01 | 12.1° | 26.3° | 19.2° | 23.6° | +0.4 °C | 16 km/h | 29 km/h | 0.0 mm |
| M02 | 13.5° | 19.7° | 16.6° | 23.5° | -2.2 °C | 8 km/h | 10 km/h | 0.0 mm |
| J03 | 12.3° | 29.6° | 21° | 23.7° | +2.2 °C | 13 km/h | 19 km/h | 0.0 mm |
| V04 | 14.4° | 34.2° | 24.3° | 24° | +5.5 °C | 19 km/h | 35 km/h | 0.0 mm |
| S05 | 16.5° | 31.6° | 24.1° | 23.9° | +5.3 °C | 14 km/h | 24 km/h | 0.0 mm |
| D06 | 20.1° | 22.8° | 21.5° | 24.3° | +2.7 °C | 17 km/h | 29 km/h | 0.0 mm |
Moy Tmin 14.8°C - Moy Tmax 27.4°C
Tmin 12.1°C - Tmax 34.2°C
Température moyenne mensuelle : 21.1 °C (ecart saisonnier +2.3°)
Rafale Maxi : 34.6 km/h
Moyenne vent : 14.42 km/h
Total précipitations : 0 mm (-81.2 mm)